KAGC/AGC METAR and TAF weather

Enter ICAO airport designator
Station Type Date Time Source
KAGC METAR 2018/12/10 23:53 UTC NOAA

KAGC 102353Z VRB03KT 8SM OVC016 M04/M07 A3019 RMK AO2 SLP246 T10441072 11033 21044 53006


Station Type Date Time Source
KAGC Decoded METAR 2018/12/10 23:53 UTC NOAA

PITTSBURGH ALLEGHENY CTY., PA, United States (KAGC) 40-21N 079-55W 389M
Dec 10, 2018 - 06:53 PM EST / 2018.12.10 2353 UTC
Wind: Variable at 3 MPH (3 KT):0
Visibility: 8 mile(s):0
Sky conditions: overcast
Temperature: 24.1 F (-4.4 C)
Dew Point: 19.0 F (-7.2 C)
Relative Humidity: 80%
Pressure (altimeter): 30.19 in. Hg (1022 hPa)
Pressure tendency: 0.02 inches (0.6 hPa) higher than three hours ago
ob: KAGC 102353Z VRB03KT 8SM OVC016 M04/M07 A3019 RMK AO2 SLP246 T10441072 11033 21044 53006
cycle: 0

Station Type Date Time Source
KAGC TAF 2018/12/10 18:39 UTC NOAA

TAF KAGC 101736Z 1018/1118 36005KT P6SM OVC010
FM110900 22006KT P6SM SCT010


Example: see airport list